sensor_id;sensor_type;location;lat;lon;timestamp;temperature;humidity
27940;DHT22;15275;51.716;14.324;2022-11-15T00:01:46;9.20;84.30
27940;DHT22;15275;51.716;14.324;2022-11-15T00:04:11;9.30;84.50
27940;DHT22;15275;51.716;14.324;2022-11-15T00:06:37;9.30;84.60
27940;DHT22;15275;51.716;14.324;2022-11-15T00:09:03;9.40;84.70
27940;DHT22;15275;51.716;14.324;2022-11-15T00:11:29;9.40;84.80
27940;DHT22;15275;51.716;14.324;2022-11-15T00:13:55;9.50;85.00
27940;DHT22;15275;51.716;14.324;2022-11-15T00:16:22;9.50;85.00
27940;DHT22;15275;51.716;14.324;2022-11-15T00:18:48;9.60;85.30
27940;DHT22;15275;51.716;14.324;2022-11-15T00:21:14;9.70;85.40
27940;DHT22;15275;51.716;14.324;2022-11-15T00:23:40;9.80;85.40
27940;DHT22;15275;51.716;14.324;2022-11-15T00:26:07;9.80;85.50
27940;DHT22;15275;51.716;14.324;2022-11-15T00:28:39;9.90;85.50
27940;DHT22;15275;51.716;14.324;2022-11-15T00:31:06;10.00;85.60
27940;DHT22;15275;51.716;14.324;2022-11-15T00:33:33;10.00;85.60
27940;DHT22;15275;51.716;14.324;2022-11-15T00:36:00;10.10;85.70
27940;DHT22;15275;51.716;14.324;2022-11-15T00:38:31;10.20;85.60
27940;DHT22;15275;51.716;14.324;2022-11-15T00:41:01;10.20;85.60
27940;DHT22;15275;51.716;14.324;2022-11-15T00:43:28;10.30;85.60
27940;DHT22;15275;51.716;14.324;2022-11-15T00:45:54;10.40;85.60
27940;DHT22;15275;51.716;14.324;2022-11-15T00:48:19;10.40;85.60
27940;DHT22;15275;51.716;14.324;2022-11-15T00:50:45;10.40;85.50
27940;DHT22;15275;51.716;14.324;2022-11-15T00:53:11;10.50;85.40
27940;DHT22;15275;51.716;14.324;2022-11-15T00:55:37;10.50;85.40
27940;DHT22;15275;51.716;14.324;2022-11-15T00:58:02;10.60;85.40
27940;DHT22;15275;51.716;14.324;2022-11-15T01:00:28;10.60;85.30
27940;DHT22;15275;51.716;14.324;2022-11-15T01:02:54;10.60;85.20
27940;DHT22;15275;51.716;14.324;2022-11-15T01:05:20;10.60;85.20
27940;DHT22;15275;51.716;14.324;2022-11-15T01:07:46;10.60;85.10
27940;DHT22;15275;51.716;14.324;2022-11-15T01:10:11;10.70;85.10
27940;DHT22;15275;51.716;14.324;2022-11-15T01:12:37;10.60;85.00
27940;DHT22;15275;51.716;14.324;2022-11-15T01:15:04;10.70;84.90
27940;DHT22;15275;51.716;14.324;2022-11-15T01:17:30;10.70;84.90
27940;DHT22;15275;51.716;14.324;2022-11-15T01:19:56;10.70;84.70
27940;DHT22;15275;51.716;14.324;2022-11-15T01:22:22;10.70;84.70
27940;DHT22;15275;51.716;14.324;2022-11-15T01:24:51;10.70;84.70
27940;DHT22;15275;51.716;14.324;2022-11-15T01:27:17;10.70;84.70
27940;DHT22;15275;51.716;14.324;2022-11-15T01:29:43;10.70;84.70
27940;DHT22;15275;51.716;14.324;2022-11-15T01:32:08;10.70;84.70
27940;DHT22;15275;51.716;14.324;2022-11-15T01:34:34;10.70;84.70
27940;DHT22;15275;51.716;14.324;2022-11-15T01:37:00;10.70;84.70
27940;DHT22;15275;51.716;14.324;2022-11-15T01:39:26;10.70;84.70
27940;DHT22;15275;51.716;14.324;2022-11-15T01:41:52;10.70;84.70
27940;DHT22;15275;51.716;14.324;2022-11-15T01:47:00;10.70;84.60
27940;DHT22;15275;51.716;14.324;2022-11-15T01:49:32;10.70;84.50
27940;DHT22;15275;51.716;14.324;2022-11-15T01:51:59;10.70;84.50
27940;DHT22;15275;51.716;14.324;2022-11-15T01:54:26;10.70;84.50
27940;DHT22;15275;51.716;14.324;2022-11-15T01:56:56;10.70;84.50
27940;DHT22;15275;51.716;14.324;2022-11-15T01:59:27;10.70;84.50
27940;DHT22;15275;51.716;14.324;2022-11-15T02:01:53;10.70;84.40
27940;DHT22;15275;51.716;14.324;2022-11-15T02:04:26;10.70;84.40
27940;DHT22;15275;51.716;14.324;2022-11-15T02:06:56;10.70;84.40
27940;DHT22;15275;51.716;14.324;2022-11-15T02:09:22;10.70;84.40
27940;DHT22;15275;51.716;14.324;2022-11-15T02:11:48;10.70;84.40
27940;DHT22;15275;51.716;14.324;2022-11-15T02:14:15;10.60;84.30
27940;DHT22;15275;51.716;14.324;2022-11-15T02:22:08;10.60;84.40
27940;DHT22;15275;51.716;14.324;2022-11-15T02:30:30;10.60;84.50
27940;DHT22;15275;51.716;14.324;2022-11-15T02:39:03;10.60;84.50
27940;DHT22;15275;51.716;14.324;2022-11-15T02:44:05;10.60;84.50
27940;DHT22;15275;51.716;14.324;2022-11-15T02:46:37;10.60;84.50
27940;DHT22;15275;51.716;14.324;2022-11-15T02:49:28;10.60;84.50
27940;DHT22;15275;51.716;14.324;2022-11-15T02:51:56;10.60;84.50
27940;DHT22;15275;51.716;14.324;2022-11-15T02:54:23;10.60;84.50
27940;DHT22;15275;51.716;14.324;2022-11-15T02:56:54;10.60;84.60
27940;DHT22;15275;51.716;14.324;2022-11-15T03:07:26;10.60;84.60
27940;DHT22;15275;51.716;14.324;2022-11-15T03:10:25;10.60;84.60
27940;DHT22;15275;51.716;14.324;2022-11-15T03:15:32;10.60;84.50
27940;DHT22;15275;51.716;14.324;2022-11-15T03:18:28;10.60;84.60
27940;DHT22;15275;51.716;14.324;2022-11-15T03:20:59;10.50;84.50
27940;DHT22;15275;51.716;14.324;2022-11-15T03:23:26;10.50;84.50
27940;DHT22;15275;51.716;14.324;2022-11-15T03:25:55;10.50;84.50
27940;DHT22;15275;51.716;14.324;2022-11-15T03:28:22;10.60;84.50
27940;DHT22;15275;51.716;14.324;2022-11-15T03:30:50;10.50;84.60
27940;DHT22;15275;51.716;14.324;2022-11-15T03:33:17;10.50;84.50
27940;DHT22;15275;51.716;14.324;2022-11-15T03:35:45;10.50;84.50
27940;DHT22;15275;51.716;14.324;2022-11-15T03:38:14;10.50;84.40
27940;DHT22;15275;51.716;14.324;2022-11-15T03:40:49;10.50;84.40
27940;DHT22;15275;51.716;14.324;2022-11-15T03:45:49;10.50;84.40
27940;DHT22;15275;51.716;14.324;2022-11-15T03:48:18;10.50;84.40
27940;DHT22;15275;51.716;14.324;2022-11-15T03:50:47;10.50;84.40
27940;DHT22;15275;51.716;14.324;2022-11-15T03:53:13;10.50;84.30
27940;DHT22;15275;51.716;14.324;2022-11-15T03:55:39;10.50;84.40
27940;DHT22;15275;51.716;14.324;2022-11-15T03:58:05;10.50;84.30
27940;DHT22;15275;51.716;14.324;2022-11-15T04:00:31;10.50;84.30
27940;DHT22;15275;51.716;14.324;2022-11-15T04:02:57;10.50;84.30
27940;DHT22;15275;51.716;14.324;2022-11-15T04:05:23;10.40;84.30
27940;DHT22;15275;51.716;14.324;2022-11-15T04:07:49;10.40;84.30
27940;DHT22;15275;51.716;14.324;2022-11-15T04:10:15;10.40;84.20
27940;DHT22;15275;51.716;14.324;2022-11-15T04:12:41;10.40;84.20
27940;DHT22;15275;51.716;14.324;2022-11-15T04:15:12;10.40;84.10
27940;DHT22;15275;51.716;14.324;2022-11-15T04:17:41;10.40;84.10
27940;DHT22;15275;51.716;14.324;2022-11-15T04:20:08;10.40;84.10
27940;DHT22;15275;51.716;14.324;2022-11-15T04:22:55;10.40;84.10
27940;DHT22;15275;51.716;14.324;2022-11-15T04:25:40;10.40;84.10
27940;DHT22;15275;51.716;14.324;2022-11-15T04:28:15;10.30;84.10
27940;DHT22;15275;51.716;14.324;2022-11-15T04:30:41;10.30;84.10
27940;DHT22;15275;51.716;14.324;2022-11-15T04:33:06;10.30;84.10
27940;DHT22;15275;51.716;14.324;2022-11-15T04:35:32;10.30;84.00
27940;DHT22;15275;51.716;14.324;2022-11-15T04:37:58;10.30;84.00
27940;DHT22;15275;51.716;14.324;2022-11-15T04:40:25;10.30;84.00
27940;DHT22;15275;51.716;14.324;2022-11-15T04:42:50;10.20;84.00
27940;DHT22;15275;51.716;14.324;2022-11-15T04:45:16;10.20;84.00
27940;DHT22;15275;51.716;14.324;2022-11-15T04:47:45;10.20;84.00
27940;DHT22;15275;51.716;14.324;2022-11-15T04:50:12;10.20;84.00
27940;DHT22;15275;51.716;14.324;2022-11-15T04:52:40;10.20;84.00
27940;DHT22;15275;51.716;14.324;2022-11-15T04:55:07;10.20;83.90
27940;DHT22;15275;51.716;14.324;2022-11-15T04:57:36;10.20;83.90
27940;DHT22;15275;51.716;14.324;2022-11-15T05:00:07;10.10;83.90
27940;DHT22;15275;51.716;14.324;2022-11-15T05:02:34;10.10;83.90
27940;DHT22;15275;51.716;14.324;2022-11-15T05:05:18;10.10;83.90
27940;DHT22;15275;51.716;14.324;2022-11-15T05:07:44;10.10;83.80
27940;DHT22;15275;51.716;14.324;2022-11-15T05:10:10;10.10;83.80
27940;DHT22;15275;51.716;14.324;2022-11-15T05:12:36;10.10;83.80
27940;DHT22;15275;51.716;14.324;2022-11-15T05:15:02;10.00;83.80
27940;DHT22;15275;51.716;14.324;2022-11-15T05:17:28;10.00;83.80
27940;DHT22;15275;51.716;14.324;2022-11-15T05:19:53;10.00;83.80
27940;DHT22;15275;51.716;14.324;2022-11-15T05:22:19;10.00;83.80
27940;DHT22;15275;51.716;14.324;2022-11-15T05:24:45;10.00;83.80
27940;DHT22;15275;51.716;14.324;2022-11-15T05:27:11;10.00;83.80
27940;DHT22;15275;51.716;14.324;2022-11-15T05:29:36;10.00;83.90
27940;DHT22;15275;51.716;14.324;2022-11-15T05:32:03;9.90;84.00
27940;DHT22;15275;51.716;14.324;2022-11-15T05:34:30;9.90;84.00
27940;DHT22;15275;51.716;14.324;2022-11-15T05:36:56;9.90;84.00
27940;DHT22;15275;51.716;14.324;2022-11-15T05:39:22;9.90;84.00
27940;DHT22;15275;51.716;14.324;2022-11-15T05:41:48;9.90;84.00
27940;DHT22;15275;51.716;14.324;2022-11-15T05:44:27;9.90;84.00
27940;DHT22;15275;51.716;14.324;2022-11-15T05:46:52;9.90;84.00
27940;DHT22;15275;51.716;14.324;2022-11-15T05:49:20;9.90;83.90
27940;DHT22;15275;51.716;14.324;2022-11-15T05:51:47;9.90;83.90
27940;DHT22;15275;51.716;14.324;2022-11-15T05:54:14;9.80;83.90
27940;DHT22;15275;51.716;14.324;2022-11-15T05:56:40;9.80;83.80
27940;DHT22;15275;51.716;14.324;2022-11-15T05:59:07;9.80;83.70
27940;DHT22;15275;51.716;14.324;2022-11-15T06:01:33;9.80;83.60
27940;DHT22;15275;51.716;14.324;2022-11-15T06:03:59;9.70;83.60
27940;DHT22;15275;51.716;14.324;2022-11-15T06:06:24;9.70;83.50
27940;DHT22;15275;51.716;14.324;2022-11-15T06:08:53;9.70;83.40
27940;DHT22;15275;51.716;14.324;2022-11-15T06:11:18;9.60;83.40
27940;DHT22;15275;51.716;14.324;2022-11-15T06:13:44;9.60;83.40
27940;DHT22;15275;51.716;14.324;2022-11-15T06:16:10;9.60;83.40
27940;DHT22;15275;51.716;14.324;2022-11-15T06:18:36;9.60;83.50
27940;DHT22;15275;51.716;14.324;2022-11-15T06:21:02;9.50;83.60
27940;DHT22;15275;51.716;14.324;2022-11-15T06:23:28;9.50;83.70
27940;DHT22;15275;51.716;14.324;2022-11-15T06:25:57;9.50;83.80
27940;DHT22;15275;51.716;14.324;2022-11-15T06:28:24;9.50;83.80
27940;DHT22;15275;51.716;14.324;2022-11-15T06:30:50;9.50;83.80
27940;DHT22;15275;51.716;14.324;2022-11-15T06:33:15;9.50;83.90
27940;DHT22;15275;51.716;14.324;2022-11-15T06:35:41;9.50;83.90
27940;DHT22;15275;51.716;14.324;2022-11-15T06:38:08;9.50;83.90
27940;DHT22;15275;51.716;14.324;2022-11-15T06:40:35;9.50;84.00
27940;DHT22;15275;51.716;14.324;2022-11-15T06:43:02;9.50;84.00
27940;DHT22;15275;51.716;14.324;2022-11-15T06:45:28;9.50;84.00
27940;DHT22;15275;51.716;14.324;2022-11-15T06:47:54;9.50;84.00
27940;DHT22;15275;51.716;14.324;2022-11-15T06:50:20;9.50;84.00
27940;DHT22;15275;51.716;14.324;2022-11-15T06:52:46;9.50;84.00
27940;DHT22;15275;51.716;14.324;2022-11-15T06:55:11;9.50;84.00
27940;DHT22;15275;51.716;14.324;2022-11-15T06:57:43;9.50;84.10
27940;DHT22;15275;51.716;14.324;2022-11-15T07:00:15;9.60;84.20
27940;DHT22;15275;51.716;14.324;2022-11-15T07:02:42;9.60;84.30
27940;DHT22;15275;51.716;14.324;2022-11-15T07:05:07;9.60;84.30
27940;DHT22;15275;51.716;14.324;2022-11-15T07:07:35;9.60;84.40
27940;DHT22;15275;51.716;14.324;2022-11-15T07:10:01;9.60;84.50
27940;DHT22;15275;51.716;14.324;2022-11-15T07:12:26;9.70;84.50
27940;DHT22;15275;51.716;14.324;2022-11-15T07:14:52;9.70;84.60
27940;DHT22;15275;51.716;14.324;2022-11-15T07:17:18;9.70;84.70
27940;DHT22;15275;51.716;14.324;2022-11-15T07:19:43;9.80;84.70
27940;DHT22;15275;51.716;14.324;2022-11-15T07:22:09;9.80;84.80
27940;DHT22;15275;51.716;14.324;2022-11-15T07:24:35;9.90;84.90
27940;DHT22;15275;51.716;14.324;2022-11-15T07:27:00;9.90;84.90
27940;DHT22;15275;51.716;14.324;2022-11-15T07:29:26;10.00;85.00
27940;DHT22;15275;51.716;14.324;2022-11-15T07:31:52;10.00;85.10
27940;DHT22;15275;51.716;14.324;2022-11-15T07:34:18;10.10;85.20
27940;DHT22;15275;51.716;14.324;2022-11-15T07:36:43;10.10;85.30
27940;DHT22;15275;51.716;14.324;2022-11-15T07:39:09;10.20;85.30
27940;DHT22;15275;51.716;14.324;2022-11-15T07:41:37;10.30;85.50
27940;DHT22;15275;51.716;14.324;2022-11-15T07:44:04;10.40;85.60
27940;DHT22;15275;51.716;14.324;2022-11-15T07:46:30;10.40;85.70
27940;DHT22;15275;51.716;14.324;2022-11-15T07:48:56;10.50;85.70
27940;DHT22;15275;51.716;14.324;2022-11-15T07:51:22;10.60;85.80
27940;DHT22;15275;51.716;14.324;2022-11-15T07:53:48;10.70;85.80
27940;DHT22;15275;51.716;14.324;2022-11-15T07:56:14;10.80;85.80
27940;DHT22;15275;51.716;14.324;2022-11-15T07:58:40;10.80;85.90
27940;DHT22;15275;51.716;14.324;2022-11-15T08:01:06;10.90;85.90
27940;DHT22;15275;51.716;14.324;2022-11-15T08:03:34;11.00;85.90
27940;DHT22;15275;51.716;14.324;2022-11-15T08:06:00;11.10;85.90
27940;DHT22;15275;51.716;14.324;2022-11-15T08:08:26;11.20;86.00
27940;DHT22;15275;51.716;14.324;2022-11-15T08:10:51;11.20;86.00
27940;DHT22;15275;51.716;14.324;2022-11-15T08:13:17;11.30;86.10
27940;DHT22;15275;51.716;14.324;2022-11-15T08:15:43;11.40;86.10
27940;DHT22;15275;51.716;14.324;2022-11-15T08:18:10;11.50;86.10
27940;DHT22;15275;51.716;14.324;2022-11-15T08:20:40;11.60;86.00
27940;DHT22;15275;51.716;14.324;2022-11-15T08:23:07;11.70;86.00
27940;DHT22;15275;51.716;14.324;2022-11-15T08:25:34;11.70;86.00
27940;DHT22;15275;51.716;14.324;2022-11-15T08:28:00;11.80;86.10
27940;DHT22;15275;51.716;14.324;2022-11-15T08:30:28;11.90;86.10
27940;DHT22;15275;51.716;14.324;2022-11-15T08:32:56;12.00;86.00
27940;DHT22;15275;51.716;14.324;2022-11-15T08:35:23;12.10;86.00
27940;DHT22;15275;51.716;14.324;2022-11-15T08:37:49;12.20;86.00
27940;DHT22;15275;51.716;14.324;2022-11-15T08:40:15;12.30;86.00
27940;DHT22;15275;51.716;14.324;2022-11-15T08:42:41;12.40;85.90
27940;DHT22;15275;51.716;14.324;2022-11-15T08:45:07;12.50;85.90
27940;DHT22;15275;51.716;14.324;2022-11-15T08:47:33;12.60;85.90
27940;DHT22;15275;51.716;14.324;2022-11-15T08:50:00;12.60;85.80
27940;DHT22;15275;51.716;14.324;2022-11-15T08:52:25;12.70;85.80
27940;DHT22;15275;51.716;14.324;2022-11-15T08:54:51;12.80;85.80
27940;DHT22;15275;51.716;14.324;2022-11-15T08:57:17;12.90;85.80
27940;DHT22;15275;51.716;14.324;2022-11-15T08:59:43;13.00;86.10
27940;DHT22;15275;51.716;14.324;2022-11-15T09:02:12;13.10;85.90
27940;DHT22;15275;51.716;14.324;2022-11-15T09:04:43;13.10;85.70
27940;DHT22;15275;51.716;14.324;2022-11-15T09:07:09;13.20;85.60
27940;DHT22;15275;51.716;14.324;2022-11-15T09:09:37;13.30;85.60
27940;DHT22;15275;51.716;14.324;2022-11-15T09:12:03;13.40;85.70
27940;DHT22;15275;51.716;14.324;2022-11-15T09:14:30;13.50;85.70
27940;DHT22;15275;51.716;14.324;2022-11-15T09:16:56;13.60;85.60
27940;DHT22;15275;51.716;14.324;2022-11-15T09:19:21;13.60;85.60
27940;DHT22;15275;51.716;14.324;2022-11-15T09:21:47;13.70;85.50
27940;DHT22;15275;51.716;14.324;2022-11-15T09:24:13;13.80;85.50
27940;DHT22;15275;51.716;14.324;2022-11-15T09:26:39;13.90;85.60
27940;DHT22;15275;51.716;14.324;2022-11-15T09:29:05;13.90;85.50
27940;DHT22;15275;51.716;14.324;2022-11-15T09:31:31;14.00;85.40
27940;DHT22;15275;51.716;14.324;2022-11-15T09:33:57;14.10;85.40
27940;DHT22;15275;51.716;14.324;2022-11-15T09:36:23;14.10;85.40
27940;DHT22;15275;51.716;14.324;2022-11-15T09:38:49;14.20;85.50
27940;DHT22;15275;51.716;14.324;2022-11-15T09:43:45;14.40;85.30
27940;DHT22;15275;51.716;14.324;2022-11-15T09:46:33;14.40;85.30
27940;DHT22;15275;51.716;14.324;2022-11-15T09:49:08;14.50;85.20
27940;DHT22;15275;51.716;14.324;2022-11-15T09:51:41;14.60;85.30
27940;DHT22;15275;51.716;14.324;2022-11-15T09:57:09;14.80;85.00
27940;DHT22;15275;51.716;14.324;2022-11-15T10:04:54;15.00;85.00
27940;DHT22;15275;51.716;14.324;2022-11-15T10:07:27;15.10;85.00
27940;DHT22;15275;51.716;14.324;2022-11-15T10:10:00;15.20;85.00
27940;DHT22;15275;51.716;14.324;2022-11-15T10:12:28;15.30;85.10
27940;DHT22;15275;51.716;14.324;2022-11-15T10:15:05;15.40;84.80
27940;DHT22;15275;51.716;14.324;2022-11-15T10:20:29;15.60;84.60
27940;DHT22;15275;51.716;14.324;2022-11-15T10:23:01;15.60;84.50
27940;DHT22;15275;51.716;14.324;2022-11-15T10:25:32;15.70;84.20
27940;DHT22;15275;51.716;14.324;2022-11-15T10:30:47;15.80;83.90
27940;DHT22;15275;51.716;14.324;2022-11-15T10:36:14;16.00;84.00
27940;DHT22;15275;51.716;14.324;2022-11-15T10:41:13;16.20;84.10
27940;DHT22;15275;51.716;14.324;2022-11-15T10:43:39;16.20;84.10
27940;DHT22;15275;51.716;14.324;2022-11-15T10:46:19;16.30;83.80
27940;DHT22;15275;51.716;14.324;2022-11-15T10:48:46;16.40;83.90
27940;DHT22;15275;51.716;14.324;2022-11-15T10:51:25;16.40;83.80
27940;DHT22;15275;51.716;14.324;2022-11-15T10:53:59;16.50;83.70
27940;DHT22;15275;51.716;14.324;2022-11-15T10:56:26;16.60;83.20
27940;DHT22;15275;51.716;14.324;2022-11-15T10:59:01;16.60;83.00
27940;DHT22;15275;51.716;14.324;2022-11-15T11:01:27;16.70;83.20
27940;DHT22;15275;51.716;14.324;2022-11-15T11:04:08;16.70;83.00
27940;DHT22;15275;51.716;14.324;2022-11-15T11:06:48;16.80;83.20
27940;DHT22;15275;51.716;14.324;2022-11-15T11:09:22;16.80;83.00
27940;DHT22;15275;51.716;14.324;2022-11-15T11:11:49;16.90;83.10
27940;DHT22;15275;51.716;14.324;2022-11-15T11:14:23;17.00;83.30
27940;DHT22;15275;51.716;14.324;2022-11-15T11:33:12;17.60;83.10
27940;DHT22;15275;51.716;14.324;2022-11-15T11:35:45;17.70;82.90
27940;DHT22;15275;51.716;14.324;2022-11-15T11:38:19;17.70;82.50
27940;DHT22;15275;51.716;14.324;2022-11-15T11:46:49;17.90;82.40
27940;DHT22;15275;51.716;14.324;2022-11-15T11:49:30;17.90;82.50
27940;DHT22;15275;51.716;14.324;2022-11-15T11:52:31;18.00;82.30
27940;DHT22;15275;51.716;14.324;2022-11-15T11:55:02;18.00;82.40
27940;DHT22;15275;51.716;14.324;2022-11-15T11:58:15;18.10;82.40
27940;DHT22;15275;51.716;14.324;2022-11-15T12:00:54;18.10;82.00
27940;DHT22;15275;51.716;14.324;2022-11-15T12:03:36;18.20;81.80
27940;DHT22;15275;51.716;14.324;2022-11-15T12:06:12;18.20;81.70
27940;DHT22;15275;51.716;14.324;2022-11-15T12:08:53;18.30;81.90
27940;DHT22;15275;51.716;14.324;2022-11-15T12:11:26;18.30;81.80
27940;DHT22;15275;51.716;14.324;2022-11-15T12:13:57;18.30;81.70
27940;DHT22;15275;51.716;14.324;2022-11-15T12:16:28;18.40;81.60
27940;DHT22;15275;51.716;14.324;2022-11-15T12:18:56;18.40;81.40
27940;DHT22;15275;51.716;14.324;2022-11-15T12:24:01;18.50;81.40
27940;DHT22;15275;51.716;14.324;2022-11-15T12:26:35;18.50;81.10
27940;DHT22;15275;51.716;14.324;2022-11-15T12:29:11;18.50;81.20
27940;DHT22;15275;51.716;14.324;2022-11-15T12:31:47;18.50;81.10
27940;DHT22;15275;51.716;14.324;2022-11-15T12:34:29;18.60;81.10
27940;DHT22;15275;51.716;14.324;2022-11-15T12:37:00;18.60;81.10
27940;DHT22;15275;51.716;14.324;2022-11-15T12:40:03;18.60;81.10
27940;DHT22;15275;51.716;14.324;2022-11-15T12:45:28;18.70;81.00
27940;DHT22;15275;51.716;14.324;2022-11-15T12:47:55;18.70;80.90
27940;DHT22;15275;51.716;14.324;2022-11-15T12:50:57;18.70;80.80
27940;DHT22;15275;51.716;14.324;2022-11-15T12:58:28;18.80;80.70
27940;DHT22;15275;51.716;14.324;2022-11-15T13:01:08;18.80;80.50
27940;DHT22;15275;51.716;14.324;2022-11-15T13:03:35;18.80;80.50
27940;DHT22;15275;51.716;14.324;2022-11-15T13:06:02;18.80;80.50
27940;DHT22;15275;51.716;14.324;2022-11-15T13:09:02;18.80;80.40
27940;DHT22;15275;51.716;14.324;2022-11-15T13:17:28;18.80;79.80
27940;DHT22;15275;51.716;14.324;2022-11-15T13:20:07;18.80;79.90
27940;DHT22;15275;51.716;14.324;2022-11-15T13:28:23;18.70;79.70
27940;DHT22;15275;51.716;14.324;2022-11-15T13:30:56;18.70;79.80
27940;DHT22;15275;51.716;14.324;2022-11-15T13:33:25;18.60;79.80
27940;DHT22;15275;51.716;14.324;2022-11-15T13:35:59;18.60;80.00
27940;DHT22;15275;51.716;14.324;2022-11-15T13:38:32;18.60;80.00
27940;DHT22;15275;51.716;14.324;2022-11-15T13:40:59;18.60;80.00
27940;DHT22;15275;51.716;14.324;2022-11-15T13:43:45;18.50;79.90
27940;DHT22;15275;51.716;14.324;2022-11-15T13:46:28;18.50;79.90
27940;DHT22;15275;51.716;14.324;2022-11-15T13:48:59;18.50;79.80
27940;DHT22;15275;51.716;14.324;2022-11-15T13:53:58;18.40;79.40
27940;DHT22;15275;51.716;14.324;2022-11-15T13:56:34;18.40;79.60
27940;DHT22;15275;51.716;14.324;2022-11-15T13:59:07;18.40;79.60
27940;DHT22;15275;51.716;14.324;2022-11-15T14:01:34;18.30;79.50
27940;DHT22;15275;51.716;14.324;2022-11-15T14:04:00;18.30;79.40
27940;DHT22;15275;51.716;14.324;2022-11-15T14:06:27;18.20;79.40
27940;DHT22;15275;51.716;14.324;2022-11-15T14:11:50;18.10;79.30
27940;DHT22;15275;51.716;14.324;2022-11-15T14:14:17;18.10;79.30
27940;DHT22;15275;51.716;14.324;2022-11-15T14:16:46;18.00;79.40
27940;DHT22;15275;51.716;14.324;2022-11-15T14:24:36;17.90;79.60
27940;DHT22;15275;51.716;14.324;2022-11-15T14:27:19;17.80;79.60
27940;DHT22;15275;51.716;14.324;2022-11-15T14:29:45;17.80;79.60
27940;DHT22;15275;51.716;14.324;2022-11-15T14:32:13;17.70;79.50
27940;DHT22;15275;51.716;14.324;2022-11-15T14:34:44;17.70;79.40
27940;DHT22;15275;51.716;14.324;2022-11-15T14:39:45;17.50;79.20
27940;DHT22;15275;51.716;14.324;2022-11-15T14:42:11;17.40;79.20
27940;DHT22;15275;51.716;14.324;2022-11-15T14:44:37;17.30;79.20
27940;DHT22;15275;51.716;14.324;2022-11-15T14:47:03;17.30;79.20
27940;DHT22;15275;51.716;14.324;2022-11-15T14:49:29;17.20;79.20
27940;DHT22;15275;51.716;14.324;2022-11-15T14:51:54;17.10;79.20
27940;DHT22;15275;51.716;14.324;2022-11-15T14:54:20;17.00;79.10
27940;DHT22;15275;51.716;14.324;2022-11-15T14:56:46;16.90;79.00
27940;DHT22;15275;51.716;14.324;2022-11-15T14:59:11;16.80;78.90
27940;DHT22;15275;51.716;14.324;2022-11-15T15:01:37;16.70;78.90
27940;DHT22;15275;51.716;14.324;2022-11-15T15:04:03;16.60;79.00
27940;DHT22;15275;51.716;14.324;2022-11-15T15:06:28;16.50;79.00
27940;DHT22;15275;51.716;14.324;2022-11-15T15:08:56;16.40;79.00
27940;DHT22;15275;51.716;14.324;2022-11-15T15:11:27;16.30;79.00
27940;DHT22;15275;51.716;14.324;2022-11-15T15:13:54;16.20;79.00
27940;DHT22;15275;51.716;14.324;2022-11-15T15:16:22;16.20;79.00
27940;DHT22;15275;51.716;14.324;2022-11-15T15:18:49;16.00;79.10
27940;DHT22;15275;51.716;14.324;2022-11-15T15:21:26;16.00;79.10
27940;DHT22;15275;51.716;14.324;2022-11-15T15:23:53;15.80;79.10
27940;DHT22;15275;51.716;14.324;2022-11-15T15:26:22;15.70;79.10
27940;DHT22;15275;51.716;14.324;2022-11-15T15:28:48;15.60;79.00
27940;DHT22;15275;51.716;14.324;2022-11-15T15:31:16;15.50;79.00
27940;DHT22;15275;51.716;14.324;2022-11-15T15:33:42;15.40;79.00
27940;DHT22;15275;51.716;14.324;2022-11-15T15:36:12;15.30;79.10
27940;DHT22;15275;51.716;14.324;2022-11-15T15:38:38;15.20;79.20
27940;DHT22;15275;51.716;14.324;2022-11-15T15:41:12;15.10;79.40
27940;DHT22;15275;51.716;14.324;2022-11-15T15:43:39;15.00;79.50
27940;DHT22;15275;51.716;14.324;2022-11-15T15:46:12;14.90;79.60
27940;DHT22;15275;51.716;14.324;2022-11-15T15:48:39;14.80;79.80
27940;DHT22;15275;51.716;14.324;2022-11-15T15:51:06;14.80;79.90
27940;DHT22;15275;51.716;14.324;2022-11-15T15:53:32;14.70;80.00
27940;DHT22;15275;51.716;14.324;2022-11-15T15:55:58;14.60;80.10
27940;DHT22;15275;51.716;14.324;2022-11-15T15:58:23;14.60;80.20
27940;DHT22;15275;51.716;14.324;2022-11-15T16:00:49;14.50;80.10
27940;DHT22;15275;51.716;14.324;2022-11-15T16:03:15;14.40;80.00
27940;DHT22;15275;51.716;14.324;2022-11-15T16:05:40;14.40;80.00
27940;DHT22;15275;51.716;14.324;2022-11-15T16:08:10;14.30;79.80
27940;DHT22;15275;51.716;14.324;2022-11-15T16:10:48;14.20;79.80
27940;DHT22;15275;51.716;14.324;2022-11-15T16:13:14;14.10;79.60
27940;DHT22;15275;51.716;14.324;2022-11-15T16:15:40;14.00;79.60
27940;DHT22;15275;51.716;14.324;2022-11-15T16:18:09;13.90;79.70
27940;DHT22;15275;51.716;14.324;2022-11-15T16:20:46;13.80;79.70
27940;DHT22;15275;51.716;14.324;2022-11-15T16:23:16;13.80;79.90
27940;DHT22;15275;51.716;14.324;2022-11-15T16:28:48;13.60;80.00
27940;DHT22;15275;51.716;14.324;2022-11-15T16:31:10;13.50;80.00
27940;DHT22;15275;51.716;14.324;2022-11-15T16:33:37;13.40;80.00
27940;DHT22;15275;51.716;14.324;2022-11-15T16:36:03;13.40;80.00
27940;DHT22;15275;51.716;14.324;2022-11-15T16:38:30;13.30;79.90
27940;DHT22;15275;51.716;14.324;2022-11-15T16:40:56;13.20;80.00
27940;DHT22;15275;51.716;14.324;2022-11-15T16:43:22;13.10;80.10
27940;DHT22;15275;51.716;14.324;2022-11-15T16:45:48;13.00;80.30
27940;DHT22;15275;51.716;14.324;2022-11-15T16:48:25;13.00;80.40
27940;DHT22;15275;51.716;14.324;2022-11-15T16:50:55;12.90;80.40
27940;DHT22;15275;51.716;14.324;2022-11-15T16:53:22;12.80;80.30
27940;DHT22;15275;51.716;14.324;2022-11-15T16:55:48;12.80;80.30
27940;DHT22;15275;51.716;14.324;2022-11-15T16:58:14;12.70;80.20
27940;DHT22;15275;51.716;14.324;2022-11-15T17:00:39;12.60;80.30
27940;DHT22;15275;51.716;14.324;2022-11-15T17:03:05;12.50;80.30
27940;DHT22;15275;51.716;14.324;2022-11-15T17:05:31;12.50;80.30
27940;DHT22;15275;51.716;14.324;2022-11-15T17:07:57;12.40;80.40
27940;DHT22;15275;51.716;14.324;2022-11-15T17:10:23;12.30;80.50
27940;DHT22;15275;51.716;14.324;2022-11-15T17:12:50;12.30;80.60
27940;DHT22;15275;51.716;14.324;2022-11-15T17:15:16;12.20;80.70
27940;DHT22;15275;51.716;14.324;2022-11-15T17:17:42;12.20;80.70
27940;DHT22;15275;51.716;14.324;2022-11-15T17:20:18;12.10;80.80
27940;DHT22;15275;51.716;14.324;2022-11-15T17:22:45;12.10;80.80
27940;DHT22;15275;51.716;14.324;2022-11-15T17:25:11;12.00;80.90
27940;DHT22;15275;51.716;14.324;2022-11-15T17:27:38;12.00;81.00